Time;durP1;ratioP1;P1;durP2;ratioP2;P2;SDS_P1;SDS_P2;PMS_P1;PMS_P2;Temp;Humidity;BMP_temperature;BMP_pressure;BME280_temperature;BME280_humidity;BME280_pressure;Samples;Min_cycle;Max_cycle;Signal;HPM_P1;HPM_P2
2023/05/02 00:02:03;;;;;;;12.32;5.97;;;13.40;99.90;;;;;;5048503;28;20077;-88
2023/05/02 00:04:29;;;;;;;12.85;5.05;;;13.30;99.90;;;;;;5050601;28;20048;-88
2023/05/02 00:06:54;;;;;;;7.80;5.22;;;13.20;99.90;;;;;;5049420;28;20024;-90
2023/05/02 00:09:20;;;;;;;14.57;6.00;;;13.10;99.90;;;;;;5048764;28;20021;-90
2023/05/02 00:11:46;;;;;;;21.88;6.20;;;13.10;99.90;;;;;;5045942;28;20124;-88
2023/05/02 00:14:11;;;;;;;9.82;4.93;;;13.10;99.90;;;;;;5045033;28;20092;-87
2023/05/02 00:16:37;;;;;;;19.88;5.57;;;13.00;99.90;;;;;;5046233;28;20017;-88
2023/05/02 00:19:03;;;;;;;10.68;5.15;;;13.00;99.90;;;;;;5048564;28;20401;-92
2023/05/02 00:21:30;;;;;;;11.13;5.15;;;13.00;99.90;;;;;;5052701;28;20446;-89
2023/05/02 00:23:56;;;;;;;9.55;5.53;;;12.90;99.90;;;;;;5045918;28;20124;-87
2023/05/02 00:26:22;;;;;;;11.98;5.45;;;12.90;99.90;;;;;;5049235;28;20329;-93
2023/05/02 00:28:48;;;;;;;13.75;5.30;;;12.90;99.90;;;;;;5044193;28;20482;-88
2023/05/02 00:31:14;;;;;;;16.80;5.85;;;12.90;99.90;;;;;;5048709;28;20033;-92
2023/05/02 00:33:40;;;;;;;10.35;5.40;;;12.90;99.90;;;;;;5053492;28;20029;-88
2023/05/02 00:36:13;;;;;;;11.10;5.20;;;12.90;99.90;;;;;;5042458;28;20080;-88
2023/05/02 00:38:38;;;;;;;10.63;5.43;;;12.80;99.90;;;;;;5052426;28;20036;-87
2023/05/02 00:41:05;;;;;;;18.48;6.57;;;12.80;99.90;;;;;;5048658;28;20029;-89
2023/05/02 00:43:33;;;;;;;18.05;6.40;;;12.80;99.90;;;;;;5052331;28;20040;-92
2023/05/02 00:45:59;;;;;;;12.02;5.72;;;12.80;99.90;;;;;;5043935;28;20235;-88
2023/05/02 00:48:25;;;;;;;17.27;5.65;;;12.90;99.90;;;;;;5047590;28;20078;-88
2023/05/02 00:50:51;;;;;;;18.85;6.45;;;12.80;99.90;;;;;;5049643;28;20040;-88
2023/05/02 00:53:16;;;;;;;11.48;5.68;;;12.80;99.90;;;;;;5051091;28;20063;-88
2023/05/02 00:55:45;;;;;;;13.15;5.50;;;12.80;99.90;;;;;;5045892;28;20370;-92
2023/05/02 00:58:15;;;;;;;14.52;5.40;;;12.70;99.90;;;;;;5046342;28;20033;-90
2023/05/02 01:01:03;;;;;;;10.75;5.05;;;12.80;99.90;;;;;;5058794;28;20025;-89
2023/05/02 01:03:45;;;;;;;20.63;5.70;;;12.80;99.90;;;;;;5047689;28;20045;-88
2023/05/02 01:06:26;;;;;;;11.60;5.00;;;12.70;99.90;;;;;;5044750;28;20389;-88
2023/05/02 01:08:59;;;;;;;17.73;5.45;;;12.70;99.90;;;;;;5042129;28;20050;-88
2023/05/02 01:12:02;;;;;;;7.75;4.20;;;12.60;99.90;;;;;;5044938;28;20071;-89
2023/05/02 01:14:30;;;;;;;11.25;4.80;;;12.70;99.90;;;;;;5040782;28;20037;-91
2023/05/02 01:16:57;;;;;;;9.02;4.38;;;12.60;99.90;;;;;;5046688;28;20031;-88
2023/05/02 01:19:35;;;;;;;9.95;4.82;;;12.70;99.90;;;;;;5049730;28;20144;-87
2023/05/02 01:22:04;;;;;;;13.23;5.10;;;12.60;99.90;;;;;;5050874;28;20025;-87
2023/05/02 01:25:00;;;;;;;9.63;4.95;;;12.50;99.90;;;;;;5047694;28;20024;-88
2023/05/02 01:28:20;;;;;;;12.38;4.80;;;12.50;99.90;;;;;;5048934;28;20044;-87
2023/05/02 01:30:49;;;;;;;15.55;5.05;;;12.40;99.90;;;;;;5042638;28;20268;-88
2023/05/02 01:33:16;;;;;;;10.10;4.55;;;12.40;99.90;;;;;;5047038;28;20040;-88
2023/05/02 01:35:43;;;;;;;11.27;4.10;;;12.30;99.90;;;;;;5050410;28;20519;-89
2023/05/02 01:38:11;;;;;;;15.35;4.60;;;12.30;99.90;;;;;;5048872;28;20115;-88
2023/05/02 01:40:38;;;;;;;8.70;3.95;;;12.30;99.90;;;;;;5058751;28;20040;-88
2023/05/02 01:43:06;;;;;;;11.85;4.50;;;12.20;99.90;;;;;;5053402;28;20362;-87
2023/05/02 01:45:36;;;;;;;10.35;4.53;;;12.20;99.90;;;;;;5039289;28;20055;-87
2023/05/02 01:48:07;;;;;;;8.95;4.25;;;12.10;99.90;;;;;;5045785;28;20051;-92
2023/05/02 01:50:35;;;;;;;8.25;3.90;;;12.10;99.90;;;;;;5048130;28;20038;-94
2023/05/02 01:53:03;;;;;;;6.57;3.78;;;12.10;99.90;;;;;;5049819;28;20068;-91
2023/05/02 01:55:30;;;;;;;9.60;3.75;;;12.00;99.90;;;;;;5049483;28;20557;-87
2023/05/02 01:57:56;;;;;;;11.05;3.92;;;12.00;99.90;;;;;;5052826;28;20482;-87
2023/05/02 02:00:24;;;;;;;6.20;4.10;;;12.00;99.90;;;;;;5052347;28;20056;-87
2023/05/02 02:02:52;;;;;;;9.82;3.70;;;11.90;99.90;;;;;;5046375;28;20025;-87
2023/05/02 02:05:18;;;;;;;9.52;4.22;;;11.90;99.90;;;;;;5046362;28;20673;-88
2023/05/02 02:07:45;;;;;;;6.97;3.95;;;11.90;99.90;;;;;;5057050;28;20067;-88
2023/05/02 02:10:11;;;;;;;7.05;4.10;;;11.90;99.90;;;;;;5051029;28;20074;-88
2023/05/02 02:12:51;;;;;;;5.00;3.38;;;11.90;99.90;;;;;;5049603;28;20032;-91
2023/05/02 02:15:28;;;;;;;6.35;3.45;;;11.90;99.90;;;;;;5056886;28;20024;-89
2023/05/02 02:17:59;;;;;;;11.98;4.75;;;11.90;99.90;;;;;;5055514;28;20112;-88
2023/05/02 02:20:31;;;;;;;9.90;4.53;;;11.90;99.90;;;;;;5057006;28;20111;-88
2023/05/02 02:22:59;;;;;;;9.43;3.83;;;11.90;99.90;;;;;;5053557;28;20535;-89
2023/05/02 02:25:25;;;;;;;10.50;4.43;;;11.90;99.90;;;;;;5046924;28;20033;-89
2023/05/02 02:27:52;;;;;;;5.50;3.75;;;11.90;99.90;;;;;;5050000;28;20112;-87
2023/05/02 02:30:18;;;;;;;9.73;3.85;;;11.80;99.90;;;;;;5060895;28;20414;-87
2023/05/02 02:32:43;;;;;;;11.85;5.30;;;11.80;99.90;;;;;;5056547;28;20047;-88
2023/05/02 02:35:09;;;;;;;12.63;4.22;;;11.80;99.90;;;;;;5045970;28;20067;-87
2023/05/02 02:38:12;;;;;;;9.77;4.65;;;11.70;99.90;;;;;;5051387;28;20470;-88
2023/05/02 02:40:43;;;;;;;7.70;4.85;;;11.70;99.90;;;;;;5031679;28;20119;-88
2023/05/02 02:43:38;;;;;;;7.38;4.55;;;11.70;99.90;;;;;;5051527;28;20029;-88
2023/05/02 02:46:39;;;;;;;6.38;4.45;;;11.70;99.90;;;;;;5047458;28;20036;-88
2023/05/02 02:49:32;;;;;;;6.68;5.05;;;11.60;99.90;;;;;;5043879;28;20049;-87
2023/05/02 02:52:26;;;;;;;10.52;4.70;;;11.60;99.90;;;;;;5054488;28;20028;-92
2023/05/02 02:55:05;;;;;;;7.43;3.78;;;11.60;99.90;;;;;;5046486;28;20055;-88
2023/05/02 02:57:43;;;;;;;8.25;4.20;;;11.60;99.90;;;;;;5052158;28;20032;-91
2023/05/02 03:00:21;;;;;;;9.65;4.85;;;11.50;99.90;;;;;;5045182;28;20021;-87
2023/05/02 03:02:47;;;;;;;7.00;3.83;;;11.60;99.90;;;;;;5044658;28;20033;-87
2023/05/02 03:05:13;;;;;;;7.07;4.50;;;11.60;99.90;;;;;;5050318;28;20055;-86
2023/05/02 03:07:40;;;;;;;5.88;3.53;;;11.50;99.90;;;;;;5053059;28;20487;-87
2023/05/02 03:10:06;;;;;;;6.97;3.72;;;11.50;99.90;;;;;;5051696;28;20029;-88
2023/05/02 03:12:32;;;;;;;5.57;4.00;;;11.50;99.90;;;;;;5056495;28;20029;-88
2023/05/02 03:15:31;;;;;;;4.88;3.35;;;11.50;99.90;;;;;;5048445;28;20075;-88
2023/05/02 03:17:57;;;;;;;11.00;4.70;;;11.50;99.90;;;;;;5051403;28;20055;-88
2023/05/02 03:20:23;;;;;;;5.82;3.55;;;11.50;99.90;;;;;;5049080;28;20033;-88
2023/05/02 03:22:48;;;;;;;6.72;3.60;;;11.50;99.90;;;;;;5055792;28;20365;-88
2023/05/02 03:25:14;;;;;;;9.15;4.00;;;11.50;99.90;;;;;;5044537;28;20033;-88
2023/05/02 03:27:40;;;;;;;8.00;4.30;;;11.50;99.90;;;;;;5048299;28;20045;-88
2023/05/02 03:30:06;;;;;;;9.25;3.80;;;11.50;99.90;;;;;;5048369;28;20071;-87
2023/05/02 03:32:32;;;;;;;7.22;3.20;;;11.50;99.90;;;;;;5050702;28;20125;-92
2023/05/02 03:34:58;;;;;;;5.72;3.92;;;11.50;99.90;;;;;;5053032;28;20029;-88
2023/05/02 03:37:24;;;;;;;6.25;3.22;;;11.50;99.90;;;;;;5052970;28;20061;-86
2023/05/02 03:39:50;;;;;;;5.10;3.20;;;11.50;99.90;;;;;;5044686;28;20365;-87
2023/05/02 03:42:15;;;;;;;9.70;3.28;;;11.60;99.90;;;;;;5050139;28;20040;-87
2023/05/02 03:44:41;;;;;;;7.72;3.50;;;11.60;99.90;;;;;;5046579;28;20485;-88
2023/05/02 03:47:06;;;;;;;7.25;3.67;;;11.60;99.90;;;;;;5053205;28;20059;-88
2023/05/02 03:49:35;;;;;;;8.77;3.78;;;11.60;99.90;;;;;;5045039;28;20446;-88
2023/05/02 03:52:01;;;;;;;6.00;3.15;;;11.60;99.90;;;;;;5054911;28;20436;-87
2023/05/02 03:54:26;;;;;;;5.13;3.08;;;11.60;99.90;;;;;;5048759;28;20028;-87
2023/05/02 03:56:55;;;;;;;10.38;3.67;;;11.60;99.90;;;;;;5052673;28;20017;-89
2023/05/02 03:59:20;;;;;;;5.60;3.15;;;11.60;99.90;;;;;;5043882;28;20021;-88
2023/05/02 04:01:49;;;;;;;11.18;3.10;;;11.60;99.90;;;;;;5054272;28;20339;-87
2023/05/02 04:04:15;;;;;;;10.50;3.78;;;11.60;99.90;;;;;;5042628;28;20048;-87
2023/05/02 04:06:41;;;;;;;7.80;3.63;;;11.70;99.90;;;;;;5053684;28;20755;-88
2023/05/02 04:09:09;;;;;;;11.57;3.15;;;11.60;99.90;;;;;;5044744;28;20091;-91
2023/05/02 04:11:35;;;;;;;7.38;4.20;;;11.70;99.90;;;;;;5043397;28;20039;-88
2023/05/02 04:14:01;;;;;;;22.67;4.38;;;11.60;99.90;;;;;;5049181;28;20029;-87
2023/05/02 04:16:26;;;;;;;7.57;3.85;;;11.60;99.90;;;;;;5049506;28;20075;-89
2023/05/02 04:18:52;;;;;;;14.35;5.38;;;11.60;99.90;;;;;;5054434;28;20459;-87
2023/05/02 04:21:17;;;;;;;9.70;3.63;;;11.60;99.90;;;;;;5045753;28;20029;-88
2023/05/02 04:23:43;;;;;;;7.90;3.67;;;11.50;99.90;;;;;;5044307;28;20033;-87
2023/05/02 04:26:08;;;;;;;8.18;3.90;;;11.60;99.90;;;;;;5044089;28;20051;-87
2023/05/02 04:28:34;;;;;;;12.52;4.35;;;11.60;99.90;;;;;;5051430;28;20045;-84
2023/05/02 04:31:00;;;;;;;12.88;4.93;;;11.60;99.90;;;;;;5064749;28;20050;-87
2023/05/02 04:33:26;;;;;;;16.38;5.22;;;11.60;99.90;;;;;;5052820;28;20474;-88
2023/05/02 04:35:52;;;;;;;14.77;5.13;;;11.60;99.90;;;;;;5049876;28;20496;-87
2023/05/02 04:38:17;;;;;;;18.10;4.95;;;11.60;99.90;;;;;;5045146;28;20024;-87
2023/05/02 04:40:43;;;;;;;10.93;5.22;;;11.60;99.90;;;;;;5058695;28;20025;-89
2023/05/02 04:43:09;;;;;;;12.55;6.18;;;11.60;99.90;;;;;;5053159;28;20042;-88
2023/05/02 04:45:35;;;;;;;12.93;5.95;;;11.60;99.90;;;;;;5040666;28;20047;-87
2023/05/02 04:48:01;;;;;;;10.15;5.07;;;11.60;99.90;;;;;;5045155;28;20036;-86
2023/05/02 04:50:28;;;;;;;27.27;8.70;;;11.60;99.90;;;;;;5044695;28;20108;-88
2023/05/02 04:52:55;;;;;;;29.52;14.70;;;11.60;99.90;;;;;;5051498;28;20075;-88
2023/05/02 04:55:21;;;;;;;29.67;17.20;;;11.60;99.90;;;;;;5038850;28;20112;-87
2023/05/02 04:57:46;;;;;;;37.67;20.63;;;11.60;99.90;;;;;;5051835;28;20152;-89
2023/05/02 05:00:12;;;;;;;31.65;18.90;;;11.60;99.90;;;;;;5051739;28;20075;-90
2023/05/02 05:02:38;;;;;;;44.45;20.70;;;11.60;99.90;;;;;;5041641;28;20486;-90
2023/05/02 05:05:05;;;;;;;34.58;20.33;;;11.50;99.90;;;;;;5048919;28;20087;-87
2023/05/02 05:07:32;;;;;;;32.88;18.80;;;11.50;99.90;;;;;;5044670;28;20037;-87
2023/05/02 05:09:58;;;;;;;34.42;20.33;;;11.50;99.90;;;;;;5050186;28;22565;-87
2023/05/02 05:12:24;;;;;;;31.20;19.05;;;11.50;99.90;;;;;;5044300;28;20024;-87
2023/05/02 05:14:49;;;;;;;43.60;20.08;;;11.40;99.90;;;;;;5043112;28;20486;-90
2023/05/02 05:17:16;;;;;;;32.10;19.10;;;11.40;99.90;;;;;;5043829;28;20075;-87
2023/05/02 05:19:41;;;;;;;28.95;17.40;;;11.40;99.90;;;;;;5044978;28;20021;-87
2023/05/02 05:22:07;;;;;;;34.08;18.25;;;11.40;99.90;;;;;;5043969;28;20033;-87
2023/05/02 05:24:33;;;;;;;34.10;18.15;;;11.30;99.90;;;;;;5043165;28;20047;-89
2023/05/02 05:26:58;;;;;;;36.95;19.55;;;11.30;99.90;;;;;;5042558;28;20032;-89
2023/05/02 05:29:24;;;;;;;29.85;15.48;;;11.30;99.90;;;;;;5047579;28;20383;-86
2023/05/02 05:31:50;;;;;;;33.88;18.23;;;11.30;99.90;;;;;;5049562;28;20078;-87
2023/05/02 05:34:15;;;;;;;29.63;16.55;;;11.20;99.90;;;;;;5039567;28;20084;-87
2023/05/02 05:36:41;;;;;;;25.83;16.25;;;11.20;99.90;;;;;;5043185;28;21561;-87
2023/05/02 05:39:07;;;;;;;32.78;18.20;;;11.20;99.90;;;;;;5048912;28;20470;-88
2023/05/02 05:41:34;;;;;;;32.67;18.33;;;11.20;99.90;;;;;;5043355;28;20116;-88
2023/05/02 05:43:59;;;;;;;26.90;16.88;;;11.20;99.90;;;;;;5038762;28;20398;-87
2023/05/02 05:46:25;;;;;;;33.90;17.13;;;11.30;99.90;;;;;;5036877;28;20025;-89
2023/05/02 05:48:51;;;;;;;32.13;16.83;;;11.20;99.90;;;;;;5048799;28;20123;-86
2023/05/02 05:51:16;;;;;;;25.98;16.55;;;11.30;99.90;;;;;;5045111;28;20409;-86
2023/05/02 05:53:42;;;;;;;33.17;16.77;;;11.30;99.90;;;;;;5049667;28;20029;-87
2023/05/02 05:56:09;;;;;;;35.60;17.10;;;11.20;99.90;;;;;;5041176;28;20037;-90
2023/05/02 05:58:35;;;;;;;32.70;16.83;;;11.30;99.90;;;;;;5049023;28;20104;-88
2023/05/02 06:01:01;;;;;;;41.13;19.85;;;11.30;99.90;;;;;;5047458;28;20115;-87
2023/05/02 06:03:26;;;;;;;36.25;19.90;;;11.30;99.90;;;;;;5051365;28;20037;-86
2023/05/02 06:05:52;;;;;;;43.33;21.88;;;11.30;99.90;;;;;;5041894;28;20033;-86
2023/05/02 06:08:20;;;;;;;35.88;21.38;;;11.30;99.90;;;;;;5040498;28;20060;-90
2023/05/02 06:10:46;;;;;;;34.92;22.02;;;11.30;99.90;;;;;;5044852;28;20033;-87
2023/05/02 06:13:12;;;;;;;42.08;22.83;;;11.30;99.90;;;;;;5039114;28;20032;-88
2023/05/02 06:15:37;;;;;;;40.58;21.80;;;11.30;99.90;;;;;;5047799;28;20308;-88
2023/05/02 06:18:03;;;;;;;36.25;21.60;;;11.30;99.90;;;;;;5041649;28;20021;-86
2023/05/02 06:20:29;;;;;;;39.88;23.17;;;11.30;99.90;;;;;;5040971;28;20091;-86
2023/05/02 06:22:54;;;;;;;46.70;24.17;;;11.30;99.90;;;;;;5045914;28;20029;-86
2023/05/02 06:25:20;;;;;;;32.53;21.10;;;11.30;99.90;;;;;;5049813;28;20040;-92
2023/05/02 06:27:45;;;;;;;29.52;17.25;;;11.30;99.90;;;;;;5037685;28;20087;-94
2023/05/02 06:30:11;;;;;;;27.73;16.00;;;11.30;99.90;;;;;;5041250;28;20452;-91
2023/05/02 06:32:37;;;;;;;32.30;17.30;;;11.30;99.90;;;;;;5034320;28;20401;-86
2023/05/02 06:35:03;;;;;;;25.13;15.10;;;11.40;99.90;;;;;;5051334;28;20025;-89
2023/05/02 06:37:33;;;;;;;23.42;14.70;;;11.30;99.90;;;;;;5043777;28;20059;-88
2023/05/02 06:40:00;;;;;;;26.45;14.90;;;11.30;99.90;;;;;;5039760;28;20135;-89
2023/05/02 06:42:26;;;;;;;22.92;13.88;;;11.30;99.90;;;;;;5047116;28;20025;-88
2023/05/02 06:44:51;;;;;;;27.27;14.75;;;11.40;99.90;;;;;;5041150;28;20043;-87
2023/05/02 06:47:17;;;;;;;27.80;15.13;;;11.40;99.90;;;;;;5044315;28;20752;-89
2023/05/02 06:49:43;;;;;;;22.52;13.00;;;11.40;99.90;;;;;;5044374;28;20025;-87
2023/05/02 06:52:08;;;;;;;26.45;12.90;;;11.40;99.90;;;;;;5047887;28;20475;-91
2023/05/02 06:54:34;;;;;;;21.88;14.18;;;11.40;99.90;;;;;;5044580;28;20447;-88
2023/05/02 06:57:01;;;;;;;22.20;13.90;;;11.40;99.90;;;;;;5049203;28;20025;-86
2023/05/02 06:59:26;;;;;;;23.02;13.88;;;11.40;99.90;;;;;;5047848;28;20037;-89
2023/05/02 07:01:52;;;;;;;24.23;13.88;;;11.50;99.90;;;;;;5053302;28;20024;-86
2023/05/02 07:04:18;;;;;;;27.63;15.68;;;11.50;99.90;;;;;;5051791;28;20052;-87
2023/05/02 07:06:44;;;;;;;24.70;15.30;;;11.40;99.90;;;;;;5051405;28;20600;-87
2023/05/02 07:09:10;;;;;;;27.52;14.30;;;11.50;99.90;;;;;;5053011;28;20047;-88
2023/05/02 07:11:36;;;;;;;27.42;15.57;;;11.40;99.90;;;;;;5047639;28;20482;-92
2023/05/02 07:14:01;;;;;;;27.65;15.85;;;11.50;99.90;;;;;;5049687;28;20428;-86
2023/05/02 07:16:27;;;;;;;27.20;13.23;;;11.40;99.90;;;;;;5045778;28;20082;-86
2023/05/02 07:18:52;;;;;;;25.98;13.63;;;11.40;99.90;;;;;;5045638;28;20025;-86
2023/05/02 07:21:18;;;;;;;23.65;14.48;;;11.50;99.90;;;;;;5045964;28;20514;-86
2023/05/02 07:23:44;;;;;;;19.90;12.88;;;11.50;99.90;;;;;;5056481;28;20548;-88
2023/05/02 07:26:09;;;;;;;25.83;16.30;;;11.50;99.90;;;;;;5044193;28;20095;-87
2023/05/02 07:28:35;;;;;;;30.25;15.10;;;11.50;99.90;;;;;;5050991;28;20056;-87
2023/05/02 07:31:01;;;;;;;31.95;16.08;;;11.60;99.90;;;;;;5046084;28;20473;-90
2023/05/02 07:33:26;;;;;;;30.25;15.32;;;11.60;99.90;;;;;;5056693;28;20048;-88
2023/05/02 07:35:52;;;;;;;30.10;14.15;;;11.60;99.90;;;;;;5048272;28;20502;-86
2023/05/02 07:38:18;;;;;;;24.13;13.88;;;11.60;99.90;;;;;;5051022;28;20376;-88
2023/05/02 07:40:46;;;;;;;24.30;14.25;;;11.60;99.90;;;;;;5048345;28;20123;-89
2023/05/02 07:43:13;;;;;;;25.60;13.63;;;11.60;99.90;;;;;;5061343;28;20036;-86
2023/05/02 07:45:38;;;;;;;23.73;13.05;;;11.60;99.90;;;;;;5049749;28;20470;-86
2023/05/02 07:48:04;;;;;;;19.42;11.32;;;11.60;99.90;;;;;;5047860;28;20091;-86
2023/05/02 07:50:29;;;;;;;22.88;11.65;;;11.60;99.90;;;;;;5046648;28;20017;-86
2023/05/02 07:52:55;;;;;;;23.17;13.38;;;11.60;99.90;;;;;;5044352;28;20013;-88
2023/05/02 07:55:21;;;;;;;21.13;12.85;;;11.60;99.90;;;;;;5048024;28;20061;-88
2023/05/02 07:57:46;;;;;;;25.95;13.25;;;11.50;99.90;;;;;;5052363;28;20529;-86
2023/05/02 08:00:13;;;;;;;28.17;14.32;;;11.50;99.90;;;;;;5052425;28;20371;-88
2023/05/02 08:02:40;;;;;;;26.60;15.40;;;11.50;99.90;;;;;;5047594;28;20411;-87
2023/05/02 08:05:06;;;;;;;31.92;16.60;;;11.50;99.90;;;;;;5053017;28;20412;-87
2023/05/02 08:07:34;;;;;;;26.90;15.75;;;11.50;99.90;;;;;;5052778;28;20040;-86
2023/05/02 08:10:00;;;;;;;29.95;16.00;;;11.40;99.90;;;;;;5051258;28;20389;-87
2023/05/02 08:12:25;;;;;;;29.08;16.25;;;11.50;99.90;;;;;;5046824;28;20116;-86
2023/05/02 08:14:51;;;;;;;28.33;15.38;;;11.50;99.90;;;;;;5045618;28;20150;-87
2023/05/02 08:17:17;;;;;;;28.38;17.08;;;11.60;99.90;;;;;;5051312;28;20500;-89
2023/05/02 08:19:43;;;;;;;31.65;17.27;;;11.60;99.90;;;;;;5048518;28;20056;-87
2023/05/02 08:22:08;;;;;;;32.60;15.48;;;11.70;99.90;;;;;;5048291;28;20025;-88
2023/05/02 08:24:34;;;;;;;23.98;14.02;;;11.70;99.90;;;;;;5043343;28;20033;-86
2023/05/02 08:27:02;;;;;;;22.13;13.13;;;11.70;99.90;;;;;;5044477;28;20021;-88
2023/05/02 08:29:30;;;;;;;20.88;13.32;;;11.70;99.90;;;;;;5048475;28;20075;-88
2023/05/02 08:31:55;;;;;;;16.85;11.35;;;11.60;99.90;;;;;;5046937;28;20036;-86
2023/05/02 08:34:21;;;;;;;19.52;11.93;;;11.60;99.90;;;;;;5043096;28;20037;-86
2023/05/02 08:36:47;;;;;;;16.52;10.40;;;11.50;99.90;;;;;;5047728;28;20946;-86
2023/05/02 08:39:12;;;;;;;20.92;12.20;;;11.40;99.90;;;;;;5037519;28;20064;-88
2023/05/02 08:41:38;;;;;;;18.02;10.70;;;11.40;99.90;;;;;;5046430;28;20057;-86
2023/05/02 08:44:06;;;;;;;15.80;10.23;;;11.30;99.90;;;;;;5050631;28;20078;-87
2023/05/02 08:46:35;;;;;;;18.13;11.10;;;11.20;99.90;;;;;;5046541;28;20041;-89
2023/05/02 08:49:02;;;;;;;17.55;9.80;;;11.10;99.90;;;;;;5038855;28;20032;-87
2023/05/02 08:51:31;;;;;;;19.67;10.82;;;11.00;99.90;;;;;;5047473;28;20017;-88
2023/05/02 08:53:58;;;;;;;15.80;9.63;;;10.90;99.90;;;;;;5052278;28;20056;-87
2023/05/02 08:56:25;;;;;;;12.68;7.75;;;10.90;99.90;;;;;;5050043;28;20025;-88
2023/05/02 08:58:50;;;;;;;9.50;6.80;;;10.80;99.90;;;;;;5035006;28;20546;-87
2023/05/02 09:01:18;;;;;;;13.40;6.60;;;10.70;99.90;;;;;;5050759;28;20072;-89
2023/05/02 09:03:45;;;;;;;8.70;5.57;;;10.60;99.90;;;;;;5038039;28;20547;-86
2023/05/02 09:06:14;;;;;;;6.80;4.85;;;10.50;99.90;;;;;;5078860;28;20032;-87
2023/05/02 09:08:41;;;;;;;12.50;5.88;;;10.40;99.90;;;;;;5042517;28;20049;-87
2023/05/02 09:11:09;;;;;;;6.05;4.40;;;10.30;99.90;;;;;;5044668;28;20032;-86
2023/05/02 09:13:46;;;;;;;7.78;4.32;;;10.10;99.90;;;;;;5041348;28;20033;-89
2023/05/02 09:16:24;;;;;;;5.18;4.20;;;10.10;99.90;;;;;;5036800;28;20032;-87
2023/05/02 09:18:54;;;;;;;8.75;4.55;;;9.90;99.90;;;;;;5043387;28;20041;-89
2023/05/02 09:21:35;;;;;;;8.60;4.68;;;9.90;99.90;;;;;;5046428;28;20025;-86
2023/05/02 09:24:02;;;;;;;10.45;4.82;;;9.80;99.90;;;;;;5043735;28;20025;-87
2023/05/02 09:26:33;;;;;;;8.70;4.40;;;9.70;99.90;;;;;;5043441;28;20056;-87
2023/05/02 09:29:03;;;;;;;7.40;4.72;;;9.70;99.90;;;;;;5051666;28;20078;-88
2023/05/02 09:31:36;;;;;;;12.35;5.00;;;9.80;99.90;;;;;;5048231;28;20021;-88
2023/05/02 09:34:13;;;;;;;8.98;4.93;;;9.80;99.90;;;;;;5050923;28;20397;-87
2023/05/02 09:36:52;;;;;;;8.15;4.80;;;9.80;99.90;;;;;;5038292;28;20116;-88
2023/05/02 09:39:23;;;;;;;9.25;5.15;;;9.70;99.90;;;;;;5049511;28;21784;-87
2023/05/02 09:41:49;;;;;;;12.13;5.40;;;9.70;99.90;;;;;;5047775;28;20464;-86
2023/05/02 09:44:23;;;;;;;11.38;5.75;;;9.70;99.90;;;;;;5041816;28;20558;-85
2023/05/02 09:46:52;;;;;;;14.07;5.60;;;9.70;99.90;;;;;;5049502;28;20044;-87
2023/05/02 09:49:18;;;;;;;9.93;5.28;;;9.80;99.90;;;;;;5040621;28;20041;-86
2023/05/02 09:51:47;;;;;;;9.13;4.75;;;9.80;99.90;;;;;;5049603;28;20032;-86
2023/05/02 09:54:14;;;;;;;15.55;7.82;;;9.70;99.90;;;;;;5044555;28;20500;-87
2023/05/02 09:56:53;;;;;;;10.95;6.28;;;9.70;99.90;;;;;;5038803;28;20171;-85
2023/05/02 09:59:19;;;;;;;12.10;6.53;;;9.60;99.90;;;;;;5041490;28;20036;-88
2023/05/02 10:01:52;;;;;;;15.23;7.38;;;9.60;99.90;;;;;;5043604;28;20386;-85
2023/05/02 10:04:18;;;;;;;13.50;7.50;;;9.60;99.90;;;;;;5047385;28;20498;-85
2023/05/02 10:06:44;;;;;;;14.60;8.15;;;9.60;99.90;;;;;;5052190;28;20029;-85
2023/05/02 10:09:11;;;;;;;14.40;7.13;;;9.60;99.90;;;;;;5046997;28;20445;-86
2023/05/02 10:11:42;;;;;;;16.65;9.35;;;9.50;99.90;;;;;;5049753;28;20032;-85
2023/05/02 10:14:09;;;;;;;14.30;9.68;;;9.50;99.90;;;;;;5050487;28;20038;-85
2023/05/02 10:16:41;;;;;;;24.50;12.88;;;9.50;99.90;;;;;;5053681;28;20025;-86
2023/05/02 10:19:09;;;;;;;21.48;14.05;;;9.50;99.90;;;;;;5056983;28;20537;-85
2023/05/02 10:21:35;;;;;;;28.92;16.23;;;9.60;99.90;;;;;;5048157;28;20068;-85
2023/05/02 10:24:03;;;;;;;31.42;15.40;;;9.60;99.90;;;;;;5037546;28;20048;-85
2023/05/02 10:26:28;;;;;;;28.00;15.68;;;9.60;99.90;;;;;;5048294;28;20078;-86
2023/05/02 10:28:58;;;;;;;23.70;15.93;;;9.60;99.90;;;;;;5056190;28;20122;-85
2023/05/02 10:31:25;;;;;;;25.48;15.75;;;9.70;99.90;;;;;;5054269;28;20116;-85
2023/05/02 10:33:51;;;;;;;25.85;15.52;;;9.70;99.90;;;;;;5050768;28;20021;-85
2023/05/02 10:36:21;;;;;;;23.17;15.10;;;9.80;99.90;;;;;;5052627;28;20035;-89
2023/05/02 10:38:47;;;;;;;27.55;14.15;;;9.80;99.90;;;;;;5047483;28;20494;-86
2023/05/02 10:41:17;;;;;;;25.73;13.88;;;9.80;99.90;;;;;;5047878;28;20024;-86
2023/05/02 10:43:48;;;;;;;23.33;11.30;;;9.80;99.90;;;;;;5056828;28;20029;-84
2023/05/02 10:46:36;;;;;;;28.13;12.40;;;9.90;99.90;;;;;;5055695;28;20038;-85
2023/05/02 10:49:07;;;;;;;22.52;12.48;;;9.90;99.90;;;;;;5062274;28;20065;-86
2023/05/02 10:51:35;;;;;;;19.45;12.52;;;9.90;99.90;;;;;;5052373;28;20025;-87
2023/05/02 10:54:16;;;;;;;25.77;11.68;;;9.90;99.90;;;;;;5041406;28;20029;-86
2023/05/02 10:57:14;;;;;;;20.92;10.15;;;9.90;99.90;;;;;;5045591;28;20029;-84
2023/05/02 10:59:41;;;;;;;31.70;11.38;;;9.90;99.90;;;;;;5043583;28;20122;-86
2023/05/02 11:02:22;;;;;;;30.52;10.25;;;9.80;99.90;;;;;;5050500;28;20032;-88
2023/05/02 11:05:07;;;;;;;28.83;10.73;;;9.70;99.90;;;;;;5047636;28;20052;-87
2023/05/02 11:07:34;;;;;;;26.17;11.15;;;9.70;99.90;;;;;;5050807;28;20154;-87
2023/05/02 11:10:21;;;;;;;30.38;10.50;;;9.60;99.90;;;;;;5050092;28;20198;-87
2023/05/02 11:12:59;;;;;;;29.05;10.70;;;9.60;99.90;;;;;;5044415;28;20021;-84
2023/05/02 11:15:28;;;;;;;28.20;9.52;;;9.60;99.90;;;;;;5044317;28;20641;-88
2023/05/02 11:18:12;;;;;;;31.90;10.40;;;9.60;99.90;;;;;;5047757;28;20461;-87
2023/05/02 11:20:42;;;;;;;30.38;10.20;;;9.50;99.90;;;;;;5040795;28;20554;-84
2023/05/02 11:23:14;;;;;;;29.13;10.60;;;9.60;99.90;;;;;;5045611;28;20040;-85
2023/05/02 11:25:48;;;;;;;42.90;10.60;;;9.50;99.90;;;;;;5041481;28;20028;-86
2023/05/02 11:28:35;;;;;;;29.90;9.57;;;9.50;99.90;;;;;;5037932;28;20537;-86
2023/05/02 11:31:00;;;;;;;27.25;10.05;;;9.50;99.90;;;;;;5047741;28;20028;-85
2023/05/02 11:33:28;;;;;;;35.05;8.85;;;9.50;99.90;;;;;;5042156;28;20028;-85
2023/05/02 11:35:56;;;;;;;42.13;9.95;;;9.60;99.90;;;;;;5044220;28;20083;-85
2023/05/02 11:38:22;;;;;;;29.25;8.35;;;9.60;99.90;;;;;;5048378;28;20051;-85
2023/05/02 11:40:51;;;;;;;32.58;9.93;;;9.60;99.90;;;;;;5043484;28;20545;-87
2023/05/02 11:43:18;;;;;;;52.22;10.35;;;9.70;99.90;;;;;;5045602;28;20032;-87
2023/05/02 11:45:45;;;;;;;32.22;10.75;;;9.70;99.90;;;;;;5046971;28;20025;-87
2023/05/02 11:48:12;;;;;;;37.05;10.93;;;9.80;99.90;;;;;;5052481;28;20037;-88
2023/05/02 11:50:44;;;;;;;31.27;10.30;;;10.00;99.90;;;;;;5047792;28;20021;-86
2023/05/02 11:53:14;;;;;;;36.40;10.98;;;10.00;99.90;;;;;;5042211;28;20441;-86
2023/05/02 11:55:48;;;;;;;35.40;10.95;;;10.00;99.90;;;;;;5037745;28;20032;-85
2023/05/02 11:58:22;;;;;;;28.58;10.25;;;10.10;99.90;;;;;;5053436;28;20029;-86
2023/05/02 12:00:49;;;;;;;28.55;10.60;;;10.10;99.90;;;;;;5045599;28;20481;-86
2023/05/02 12:03:19;;;;;;;31.00;10.75;;;10.20;99.90;;;;;;5049538;28;20036;-84
2023/05/02 12:05:44;;;;;;;31.15;10.80;;;10.30;99.90;;;;;;5048726;28;20033;-86
2023/05/02 12:08:24;;;;;;;25.70;9.48;;;10.30;99.90;;;;;;5049940;28;20051;-84
2023/05/02 12:10:53;;;;;;;29.20;10.65;;;10.40;99.90;;;;;;5039447;28;20040;-89
2023/05/02 12:13:21;;;;;;;32.92;11.35;;;10.40;99.90;;;;;;5047556;28;20043;-86
2023/05/02 12:15:49;;;;;;;35.22;10.13;;;10.40;99.90;;;;;;5052146;28;20033;-86
2023/05/02 12:18:16;;;;;;;36.95;9.75;;;10.30;99.90;;;;;;5047552;28;20053;-84
2023/05/02 12:20:42;;;;;;;31.05;10.73;;;10.20;99.90;;;;;;5046285;28;20031;-88
2023/05/02 12:23:09;;;;;;;28.20;10.13;;;10.20;99.90;;;;;;5046815;28;20124;-85
2023/05/02 12:25:41;;;;;;;35.13;11.55;;;10.20;99.90;;;;;;5042806;28;20028;-89
2023/05/02 12:28:07;;;;;;;49.38;12.02;;;10.20;99.90;;;;;;5050693;28;20041;-86
2023/05/02 12:30:38;;;;;;;33.53;9.65;;;10.20;99.90;;;;;;5049527;28;20421;-86
2023/05/02 12:33:05;;;;;;;27.23;10.07;;;10.20;99.90;;;;;;5052793;28;20041;-86
2023/05/02 12:35:33;;;;;;;22.73;8.50;;;10.20;99.90;;;;;;5052727;28;20405;-86
2023/05/02 12:38:19;;;;;;;33.20;9.93;;;10.20;99.90;;;;;;5049761;28;20025;-89
2023/05/02 12:40:51;;;;;;;33.58;8.93;;;10.30;99.90;;;;;;5043811;28;20523;-86
2023/05/02 12:43:18;;;;;;;33.38;7.45;;;10.30;99.90;;;;;;5045318;28;20485;-86
2023/05/02 12:45:43;;;;;;;33.08;8.05;;;10.30;99.90;;;;;;5061894;28;20135;-86